Airfield :
LOGIN :

Register | Disclaimer

   EN    FR    IT 

 










Legend :    VFR   Marginal VFR   IFR   Intensive IFR   Very Intensive IFR
Visi :
Ceiling :
>= 8 km
>= 3000ft
5 to 8 km
1000 to 3000 ft
1500m to 5 km
500 to 1000 ft
800 to 1500m
200 to 500 ft
< 800m
< 200 ft
Symbols :   Thunderstorms  Fog  Heavy snow  Heavy precipitations  Wind > 20 kt
SIGMETs :     Misc.  Thunderstorms  Icing  Turbulence  Mountain Waves  Volcanic Ashes







- Airport Elevation : 235 ft
- IATA code : BZG


EPBY - Bydgoszcz

CURRENT METAR :
  • 210700Z 24009KT 3700 -RA BR FEW004 SCT006 OVC013 05/04 Q1020

EXPIRED METARs :
  • 210630Z 24009KT 6000 -RA OVC013 05/04 Q1020
  • 210600Z 24008KT 6000 -RA BKN014 OVC024 05/04 Q1020
  • 210530Z 24008KT 9000 -RA OVC014 05/04 Q1020
  • 210500Z 23008KT 9999 OVC015 05/04 Q1020
  • 210430Z 22006KT 9999 BKN015 05/04 Q1020

TAF TAF EPBY
Valid from the 21 at 06:00 until the 22 at 06:00 UTC


210530Z 2106/2206 26008KT 9999 BKN018
TEMPO 2106/2124 3000 RA BKN012
PROB40
TEMPO 2106/2124 BKN006
No reported NOTAMs for that airfield.



MET'MAP, your aeronautical weather chart ! - Copyright ORBIFLY December 2007 - Disclaimer

ORBIFLY MET'MAP TEAM :

Programming & Development : Alexandra Zaïnal
Concept & Development : Baudouin d'Aumeries
Co-Development & Prog : Marc-Olivier Méhu
Technical & hardware support : Manuel Goepfert

Contact : metmap@orbifly.com




SOURCES & CREDITS :

   NOAA